sensor_id;sensor_type;location;lat;lon;timestamp;temperature;humidity
78516;SHT31;67815;51.990;5.688;2023-05-20T00:01:54;16.4;49.8
78516;SHT31;67815;51.990;5.688;2023-05-20T00:04:23;16.4;49.8
78516;SHT31;67815;51.990;5.688;2023-05-20T00:06:53;16.4;49.7
78516;SHT31;67815;51.990;5.688;2023-05-20T00:09:23;16.4;50.0
78516;SHT31;67815;51.990;5.688;2023-05-20T00:11:53;16.3;50.4
78516;SHT31;67815;51.990;5.688;2023-05-20T00:14:22;16.3;50.5
78516;SHT31;67815;51.990;5.688;2023-05-20T00:16:52;16.3;50.7
78516;SHT31;67815;51.990;5.688;2023-05-20T00:19:22;16.3;50.7
78516;SHT31;67815;51.990;5.688;2023-05-20T00:21:52;16.2;50.5
78516;SHT31;67815;51.990;5.688;2023-05-20T00:24:24;16.2;50.4
78516;SHT31;67815;51.990;5.688;2023-05-20T00:26:54;16.2;50.5
78516;SHT31;67815;51.990;5.688;2023-05-20T00:29:26;16.2;50.4
78516;SHT31;67815;51.990;5.688;2023-05-20T00:31:57;16.2;50.5
78516;SHT31;67815;51.990;5.688;2023-05-20T00:34:27;16.1;50.6
78516;SHT31;67815;51.990;5.688;2023-05-20T00:36:58;16.1;50.9
78516;SHT31;67815;51.990;5.688;2023-05-20T00:39:27;16.1;51.3
78516;SHT31;67815;51.990;5.688;2023-05-20T00:41:58;16.1;51.0
78516;SHT31;67815;51.990;5.688;2023-05-20T00:44:29;16.0;51.2
78516;SHT31;67815;51.990;5.688;2023-05-20T00:47:02;16.0;51.7
78516;SHT31;67815;51.990;5.688;2023-05-20T00:49:32;16.0;51.3
78516;SHT31;67815;51.990;5.688;2023-05-20T00:52:02;16.0;51.3
78516;SHT31;67815;51.990;5.688;2023-05-20T00:54:32;16.0;51.4
78516;SHT31;67815;51.990;5.688;2023-05-20T00:57:02;15.9;51.5
78516;SHT31;67815;51.990;5.688;2023-05-20T00:59:34;15.9;51.5
78516;SHT31;67815;51.990;5.688;2023-05-20T01:02:05;15.9;51.8
78516;SHT31;67815;51.990;5.688;2023-05-20T01:04:35;15.9;51.9
78516;SHT31;67815;51.990;5.688;2023-05-20T01:07:05;15.9;51.9
78516;SHT31;67815;51.990;5.688;2023-05-20T01:09:35;15.9;52.0
78516;SHT31;67815;51.990;5.688;2023-05-20T01:12:11;15.8;52.4
78516;SHT31;67815;51.990;5.688;2023-05-20T01:14:47;15.8;52.2
78516;SHT31;67815;51.990;5.688;2023-05-20T01:17:19;15.8;52.2
78516;SHT31;67815;51.990;5.688;2023-05-20T01:19:54;15.8;52.4
78516;SHT31;67815;51.990;5.688;2023-05-20T01:22:26;15.7;52.5
78516;SHT31;67815;51.990;5.688;2023-05-20T01:24:56;15.7;52.6
78516;SHT31;67815;51.990;5.688;2023-05-20T01:27:26;15.7;52.6
78516;SHT31;67815;51.990;5.688;2023-05-20T01:29:56;15.7;53.1
78516;SHT31;67815;51.990;5.688;2023-05-20T01:32:31;15.7;53.0
78516;SHT31;67815;51.990;5.688;2023-05-20T01:35:05;15.6;53.0
78516;SHT31;67815;51.990;5.688;2023-05-20T01:37:38;15.6;53.5
78516;SHT31;67815;51.990;5.688;2023-05-20T01:40:13;15.6;53.2
78516;SHT31;67815;51.990;5.688;2023-05-20T01:42:45;15.6;53.4
78516;SHT31;67815;51.990;5.688;2023-05-20T01:45:19;15.5;53.7
78516;SHT31;67815;51.990;5.688;2023-05-20T01:47:49;15.5;53.6
78516;SHT31;67815;51.990;5.688;2023-05-20T01:50:19;15.5;53.7
78516;SHT31;67815;51.990;5.688;2023-05-20T01:52:49;15.5;53.8
78516;SHT31;67815;51.990;5.688;2023-05-20T01:55:19;15.5;53.9
78516;SHT31;67815;51.990;5.688;2023-05-20T01:57:49;15.5;53.8
78516;SHT31;67815;51.990;5.688;2023-05-20T02:00:18;15.5;54.2
78516;SHT31;67815;51.990;5.688;2023-05-20T02:02:48;15.5;54.2
78516;SHT31;67815;51.990;5.688;2023-05-20T02:05:17;15.4;54.3
78516;SHT31;67815;51.990;5.688;2023-05-20T02:07:47;15.4;54.2
78516;SHT31;67815;51.990;5.688;2023-05-20T02:10:16;15.4;54.5
78516;SHT31;67815;51.990;5.688;2023-05-20T02:12:46;15.4;54.3
78516;SHT31;67815;51.990;5.688;2023-05-20T02:15:16;15.4;54.5
78516;SHT31;67815;51.990;5.688;2023-05-20T02:17:45;15.4;54.6
78516;SHT31;67815;51.990;5.688;2023-05-20T02:20:16;15.4;54.4
78516;SHT31;67815;51.990;5.688;2023-05-20T02:22:45;15.4;54.5
78516;SHT31;67815;51.990;5.688;2023-05-20T02:25:15;15.4;54.5
78516;SHT31;67815;51.990;5.688;2023-05-20T02:27:45;15.4;54.7
78516;SHT31;67815;51.990;5.688;2023-05-20T02:30:14;15.4;55.2
78516;SHT31;67815;51.990;5.688;2023-05-20T02:32:44;15.4;55.1
78516;SHT31;67815;51.990;5.688;2023-05-20T02:35:14;15.4;55.0
78516;SHT31;67815;51.990;5.688;2023-05-20T02:37:44;15.3;54.7
78516;SHT31;67815;51.990;5.688;2023-05-20T02:40:15;15.3;55.0
78516;SHT31;67815;51.990;5.688;2023-05-20T02:42:45;15.3;55.1
78516;SHT31;67815;51.990;5.688;2023-05-20T02:45:15;15.3;55.0
78516;SHT31;67815;51.990;5.688;2023-05-20T02:47:45;15.3;55.6
78516;SHT31;67815;51.990;5.688;2023-05-20T02:50:15;15.3;55.0
78516;SHT31;67815;51.990;5.688;2023-05-20T02:52:44;15.3;55.1
78516;SHT31;67815;51.990;5.688;2023-05-20T02:55:15;15.3;55.5
78516;SHT31;67815;51.990;5.688;2023-05-20T02:57:44;15.3;55.4
78516;SHT31;67815;51.990;5.688;2023-05-20T03:00:15;15.3;55.3
78516;SHT31;67815;51.990;5.688;2023-05-20T03:02:45;15.3;55.8
78516;SHT31;67815;51.990;5.688;2023-05-20T03:05:15;15.2;55.6
78516;SHT31;67815;51.990;5.688;2023-05-20T03:07:47;15.2;55.8
78516;SHT31;67815;51.990;5.688;2023-05-20T03:10:17;15.2;55.9
78516;SHT31;67815;51.990;5.688;2023-05-20T03:12:46;15.2;55.9
78516;SHT31;67815;51.990;5.688;2023-05-20T03:15:16;15.2;56.0
78516;SHT31;67815;51.990;5.688;2023-05-20T03:17:45;15.2;56.1
78516;SHT31;67815;51.990;5.688;2023-05-20T03:20:15;15.2;55.8
78516;SHT31;67815;51.990;5.688;2023-05-20T03:22:45;15.2;55.9
78516;SHT31;67815;51.990;5.688;2023-05-20T03:25:15;15.2;56.3
78516;SHT31;67815;51.990;5.688;2023-05-20T03:27:44;15.1;56.3
78516;SHT31;67815;51.990;5.688;2023-05-20T03:30:14;15.1;56.2
78516;SHT31;67815;51.990;5.688;2023-05-20T03:32:44;15.1;56.4
78516;SHT31;67815;51.990;5.688;2023-05-20T03:35:14;15.1;56.3
78516;SHT31;67815;51.990;5.688;2023-05-20T03:37:43;15.1;56.5
78516;SHT31;67815;51.990;5.688;2023-05-20T03:40:15;15.1;56.7
78516;SHT31;67815;51.990;5.688;2023-05-20T03:42:44;15.0;56.7
78516;SHT31;67815;51.990;5.688;2023-05-20T03:45:14;15.0;56.5
78516;SHT31;67815;51.990;5.688;2023-05-20T03:47:44;15.0;56.5
78516;SHT31;67815;51.990;5.688;2023-05-20T03:50:13;15.0;56.5
78516;SHT31;67815;51.990;5.688;2023-05-20T03:52:43;15.0;56.7
78516;SHT31;67815;51.990;5.688;2023-05-20T03:55:12;15.0;56.8
78516;SHT31;67815;51.990;5.688;2023-05-20T03:57:42;15.0;56.9
78516;SHT31;67815;51.990;5.688;2023-05-20T04:00:13;14.9;56.8
78516;SHT31;67815;51.990;5.688;2023-05-20T04:02:44;14.9;56.8
78516;SHT31;67815;51.990;5.688;2023-05-20T04:05:14;14.9;57.0
78516;SHT31;67815;51.990;5.688;2023-05-20T04:07:44;14.9;57.1
78516;SHT31;67815;51.990;5.688;2023-05-20T04:10:14;14.9;57.1
78516;SHT31;67815;51.990;5.688;2023-05-20T04:12:43;14.8;57.2
78516;SHT31;67815;51.990;5.688;2023-05-20T04:15:14;14.8;57.3
78516;SHT31;67815;51.990;5.688;2023-05-20T04:17:44;14.8;57.3
78516;SHT31;67815;51.990;5.688;2023-05-20T04:20:15;14.8;57.5
78516;SHT31;67815;51.990;5.688;2023-05-20T04:22:46;14.8;57.5
78516;SHT31;67815;51.990;5.688;2023-05-20T04:25:16;14.7;57.9
78516;SHT31;67815;51.990;5.688;2023-05-20T04:27:46;14.7;57.8
78516;SHT31;67815;51.990;5.688;2023-05-20T04:30:17;14.7;57.8
78516;SHT31;67815;51.990;5.688;2023-05-20T04:32:49;14.7;58.2
78516;SHT31;67815;51.990;5.688;2023-05-20T04:35:21;14.6;58.2
78516;SHT31;67815;51.990;5.688;2023-05-20T04:37:52;14.6;58.2
78516;SHT31;67815;51.990;5.688;2023-05-20T04:40:21;14.6;58.2
78516;SHT31;67815;51.990;5.688;2023-05-20T04:42:51;14.6;58.4
78516;SHT31;67815;51.990;5.688;2023-05-20T04:45:20;14.6;58.5
78516;SHT31;67815;51.990;5.688;2023-05-20T04:47:51;14.6;58.6
78516;SHT31;67815;51.990;5.688;2023-05-20T04:50:22;14.6;58.7
78516;SHT31;67815;51.990;5.688;2023-05-20T04:52:53;14.6;58.8
78516;SHT31;67815;51.990;5.688;2023-05-20T04:55:23;14.6;58.8
78516;SHT31;67815;51.990;5.688;2023-05-20T04:57:54;14.5;58.9
78516;SHT31;67815;51.990;5.688;2023-05-20T05:00:23;14.5;59.1
78516;SHT31;67815;51.990;5.688;2023-05-20T05:02:53;14.5;59.4
78516;SHT31;67815;51.990;5.688;2023-05-20T05:05:24;14.5;59.6
78516;SHT31;67815;51.990;5.688;2023-05-20T05:07:54;14.5;59.4
78516;SHT31;67815;51.990;5.688;2023-05-20T05:10:23;14.5;59.4
78516;SHT31;67815;51.990;5.688;2023-05-20T05:12:53;14.5;59.5
78516;SHT31;67815;51.990;5.688;2023-05-20T05:15:23;14.5;60.0
78516;SHT31;67815;51.990;5.688;2023-05-20T05:17:53;14.5;59.7
78516;SHT31;67815;51.990;5.688;2023-05-20T05:20:23;14.5;59.6
78516;SHT31;67815;51.990;5.688;2023-05-20T05:22:52;14.5;59.8
78516;SHT31;67815;51.990;5.688;2023-05-20T05:25:25;14.5;60.0
78516;SHT31;67815;51.990;5.688;2023-05-20T05:27:54;14.5;59.5
78516;SHT31;67815;51.990;5.688;2023-05-20T05:30:24;14.6;59.5
78516;SHT31;67815;51.990;5.688;2023-05-20T05:32:54;14.6;59.6
78516;SHT31;67815;51.990;5.688;2023-05-20T05:35:24;14.6;60.0
78516;SHT31;67815;51.990;5.688;2023-05-20T05:37:53;14.6;59.3
78516;SHT31;67815;51.990;5.688;2023-05-20T05:40:23;14.6;59.4
78516;SHT31;67815;51.990;5.688;2023-05-20T05:42:53;14.7;59.7
78516;SHT31;67815;51.990;5.688;2023-05-20T05:45:22;14.7;59.6
78516;SHT31;67815;51.990;5.688;2023-05-20T05:47:52;14.7;59.4
78516;SHT31;67815;51.990;5.688;2023-05-20T05:50:22;14.7;59.4
78516;SHT31;67815;51.990;5.688;2023-05-20T05:52:52;14.8;59.2
78516;SHT31;67815;51.990;5.688;2023-05-20T05:55:22;14.8;59.2
78516;SHT31;67815;51.990;5.688;2023-05-20T05:57:52;14.8;59.2
78516;SHT31;67815;51.990;5.688;2023-05-20T06:00:21;14.9;59.0
78516;SHT31;67815;51.990;5.688;2023-05-20T06:02:53;14.9;59.6
78516;SHT31;67815;51.990;5.688;2023-05-20T06:05:23;14.9;59.4
78516;SHT31;67815;51.990;5.688;2023-05-20T06:07:53;15.0;59.2
78516;SHT31;67815;51.990;5.688;2023-05-20T06:10:23;15.0;58.3
78516;SHT31;67815;51.990;5.688;2023-05-20T06:12:52;15.1;58.5
78516;SHT31;67815;51.990;5.688;2023-05-20T06:15:22;15.1;58.6
78516;SHT31;67815;51.990;5.688;2023-05-20T06:17:51;15.1;58.6
78516;SHT31;67815;51.990;5.688;2023-05-20T06:20:21;15.2;58.6
78516;SHT31;67815;51.990;5.688;2023-05-20T06:22:50;15.2;58.2
78516;SHT31;67815;51.990;5.688;2023-05-20T06:25:20;15.2;57.7
78516;SHT31;67815;51.990;5.688;2023-05-20T06:27:50;15.2;57.6
78516;SHT31;67815;51.990;5.688;2023-05-20T06:30:20;15.3;57.4
78516;SHT31;67815;51.990;5.688;2023-05-20T06:32:51;15.3;57.1
78516;SHT31;67815;51.990;5.688;2023-05-20T06:35:21;15.3;57.6
78516;SHT31;67815;51.990;5.688;2023-05-20T06:37:52;15.4;58.1
78516;SHT31;67815;51.990;5.688;2023-05-20T06:40:22;15.4;57.6
78516;SHT31;67815;51.990;5.688;2023-05-20T06:42:53;15.5;57.8
78516;SHT31;67815;51.990;5.688;2023-05-20T06:45:24;15.5;57.4
78516;SHT31;67815;51.990;5.688;2023-05-20T06:47:54;15.6;56.3
78516;SHT31;67815;51.990;5.688;2023-05-20T06:50:23;15.6;57.0
78516;SHT31;67815;51.990;5.688;2023-05-20T06:52:54;15.6;57.3
78516;SHT31;67815;51.990;5.688;2023-05-20T06:55:24;15.7;57.2
78516;SHT31;67815;51.990;5.688;2023-05-20T06:57:55;15.8;56.9
78516;SHT31;67815;51.990;5.688;2023-05-20T07:00:24;15.8;56.8
78516;SHT31;67815;51.990;5.688;2023-05-20T07:02:54;15.9;55.7
78516;SHT31;67815;51.990;5.688;2023-05-20T07:05:24;16.0;55.3
78516;SHT31;67815;51.990;5.688;2023-05-20T07:07:55;16.0;55.0
78516;SHT31;67815;51.990;5.688;2023-05-20T07:10:25;16.1;55.2
78516;SHT31;67815;51.990;5.688;2023-05-20T07:12:54;16.1;55.7
78516;SHT31;67815;51.990;5.688;2023-05-20T07:15:24;16.2;56.0
78516;SHT31;67815;51.990;5.688;2023-05-20T07:17:54;16.3;55.6
78516;SHT31;67815;51.990;5.688;2023-05-20T07:20:23;16.3;55.3
78516;SHT31;67815;51.990;5.688;2023-05-20T07:22:53;16.4;54.4
78516;SHT31;67815;51.990;5.688;2023-05-20T07:25:22;16.5;55.0
78516;SHT31;67815;51.990;5.688;2023-05-20T07:27:52;16.5;53.5
78516;SHT31;67815;51.990;5.688;2023-05-20T07:30:22;16.6;53.6
78516;SHT31;67815;51.990;5.688;2023-05-20T07:32:52;16.6;52.9
78516;SHT31;67815;51.990;5.688;2023-05-20T07:35:21;16.7;52.1
78516;SHT31;67815;51.990;5.688;2023-05-20T07:37:51;16.8;53.0
78516;SHT31;67815;51.990;5.688;2023-05-20T07:40:21;16.8;51.2
78516;SHT31;67815;51.990;5.688;2023-05-20T07:42:50;16.9;51.0
78516;SHT31;67815;51.990;5.688;2023-05-20T07:45:22;16.9;50.9
78516;SHT31;67815;51.990;5.688;2023-05-20T07:47:52;17.0;51.0
78516;SHT31;67815;51.990;5.688;2023-05-20T07:50:24;17.0;51.0
78516;SHT31;67815;51.990;5.688;2023-05-20T07:52:55;17.1;51.0
78516;SHT31;67815;51.990;5.688;2023-05-20T07:55:27;17.1;50.5
78516;SHT31;67815;51.990;5.688;2023-05-20T07:57:57;17.2;49.2
78516;SHT31;67815;51.990;5.688;2023-05-20T08:00:27;17.2;49.5
78516;SHT31;67815;51.990;5.688;2023-05-20T08:02:57;17.3;49.0
78516;SHT31;67815;51.990;5.688;2023-05-20T08:05:27;17.3;48.5
78516;SHT31;67815;51.990;5.688;2023-05-20T08:07:57;17.3;49.4
78516;SHT31;67815;51.990;5.688;2023-05-20T08:10:29;17.4;49.9
78516;SHT31;67815;51.990;5.688;2023-05-20T08:12:58;17.4;49.7
78516;SHT31;67815;51.990;5.688;2023-05-20T08:15:28;17.5;48.8
78516;SHT31;67815;51.990;5.688;2023-05-20T08:17:57;17.5;48.2
78516;SHT31;67815;51.990;5.688;2023-05-20T08:20:28;17.6;49.3
78516;SHT31;67815;51.990;5.688;2023-05-20T08:22:58;17.6;49.9
78516;SHT31;67815;51.990;5.688;2023-05-20T08:25:28;17.7;49.1
78516;SHT31;67815;51.990;5.688;2023-05-20T08:28:00;17.7;48.0
78516;SHT31;67815;51.990;5.688;2023-05-20T08:30:33;17.8;47.2
78516;SHT31;67815;51.990;5.688;2023-05-20T08:33:03;17.8;47.4
78516;SHT31;67815;51.990;5.688;2023-05-20T08:35:32;17.9;47.0
78516;SHT31;67815;51.990;5.688;2023-05-20T08:38:02;17.9;47.2
78516;SHT31;67815;51.990;5.688;2023-05-20T08:40:33;17.9;47.3
78516;SHT31;67815;51.990;5.688;2023-05-20T08:43:04;18.0;46.9
78516;SHT31;67815;51.990;5.688;2023-05-20T08:45:36;18.0;46.6
78516;SHT31;67815;51.990;5.688;2023-05-20T08:48:07;18.0;46.5
78516;SHT31;67815;51.990;5.688;2023-05-20T08:50:38;18.1;46.2
78516;SHT31;67815;51.990;5.688;2023-05-20T08:53:10;18.1;46.5
78516;SHT31;67815;51.990;5.688;2023-05-20T08:55:42;18.2;45.0
78516;SHT31;67815;51.990;5.688;2023-05-20T08:58:14;18.2;45.3
78516;SHT31;67815;51.990;5.688;2023-05-20T09:00:46;18.2;45.1
78516;SHT31;67815;51.990;5.688;2023-05-20T09:03:15;18.3;44.7
78516;SHT31;67815;51.990;5.688;2023-05-20T09:05:47;18.3;46.4
78516;SHT31;67815;51.990;5.688;2023-05-20T09:08:17;18.3;45.1
78516;SHT31;67815;51.990;5.688;2023-05-20T09:10:47;18.3;46.1
78516;SHT31;67815;51.990;5.688;2023-05-20T09:13:16;18.4;45.5
78516;SHT31;67815;51.990;5.688;2023-05-20T09:15:46;18.4;45.2
78516;SHT31;67815;51.990;5.688;2023-05-20T09:18:17;18.4;44.1
78516;SHT31;67815;51.990;5.688;2023-05-20T09:20:49;18.4;46.0
78516;SHT31;67815;51.990;5.688;2023-05-20T09:23:19;18.5;44.3
78516;SHT31;67815;51.990;5.688;2023-05-20T09:25:51;18.5;44.9
78516;SHT31;67815;51.990;5.688;2023-05-20T09:28:22;18.5;45.9
78516;SHT31;67815;51.990;5.688;2023-05-20T09:30:55;18.6;45.2
78516;SHT31;67815;51.990;5.688;2023-05-20T09:33:29;18.6;44.6
78516;SHT31;67815;51.990;5.688;2023-05-20T09:36:05;18.6;44.3
78516;SHT31;67815;51.990;5.688;2023-05-20T09:38:37;18.7;44.5
78516;SHT31;67815;51.990;5.688;2023-05-20T09:41:11;18.7;43.9
78516;SHT31;67815;51.990;5.688;2023-05-20T09:43:42;18.8;43.6
78516;SHT31;67815;51.990;5.688;2023-05-20T09:46:13;18.8;43.5
78516;SHT31;67815;51.990;5.688;2023-05-20T09:48:46;18.9;44.3
78516;SHT31;67815;51.990;5.688;2023-05-20T09:51:16;18.9;43.6
78516;SHT31;67815;51.990;5.688;2023-05-20T09:53:47;19.0;43.2
78516;SHT31;67815;51.990;5.688;2023-05-20T09:56:19;19.0;43.7
78516;SHT31;67815;51.990;5.688;2023-05-20T09:58:52;19.0;44.0
78516;SHT31;67815;51.990;5.688;2023-05-20T10:01:25;19.0;43.7
78516;SHT31;67815;51.990;5.688;2023-05-20T10:03:55;19.0;44.2
78516;SHT31;67815;51.990;5.688;2023-05-20T10:06:40;19.0;43.2
78516;SHT31;67815;51.990;5.688;2023-05-20T10:09:26;19.1;43.4
78516;SHT31;67815;51.990;5.688;2023-05-20T10:12:06;19.1;43.7
78516;SHT31;67815;51.990;5.688;2023-05-20T10:14:55;19.1;44.8
78516;SHT31;67815;51.990;5.688;2023-05-20T10:17:30;19.1;45.5
78516;SHT31;67815;51.990;5.688;2023-05-20T10:20:08;19.2;44.8
78516;SHT31;67815;51.990;5.688;2023-05-20T10:22:39;19.2;43.5
78516;SHT31;67815;51.990;5.688;2023-05-20T10:25:24;19.3;43.9
78516;SHT31;67815;51.990;5.688;2023-05-20T10:28:08;19.3;42.9
78516;SHT31;67815;51.990;5.688;2023-05-20T10:30:50;19.3;43.7
78516;SHT31;67815;51.990;5.688;2023-05-20T10:33:19;19.4;43.5
78516;SHT31;67815;51.990;5.688;2023-05-20T10:35:51;19.4;43.8
78516;SHT31;67815;51.990;5.688;2023-05-20T10:38:21;19.4;42.2
78516;SHT31;67815;51.990;5.688;2023-05-20T10:40:51;19.4;43.4
78516;SHT31;67815;51.990;5.688;2023-05-20T10:43:27;19.4;43.7
78516;SHT31;67815;51.990;5.688;2023-05-20T10:45:57;19.4;43.3
78516;SHT31;67815;51.990;5.688;2023-05-20T10:48:29;19.4;43.7
78516;SHT31;67815;51.990;5.688;2023-05-20T10:51:01;19.5;42.7
78516;SHT31;67815;51.990;5.688;2023-05-20T10:53:40;19.5;42.9
78516;SHT31;67815;51.990;5.688;2023-05-20T10:56:18;19.5;42.0
78516;SHT31;67815;51.990;5.688;2023-05-20T10:58:52;19.6;42.8
78516;SHT31;67815;51.990;5.688;2023-05-20T11:01:25;19.6;42.6
78516;SHT31;67815;51.990;5.688;2023-05-20T11:03:56;19.6;43.2
78516;SHT31;67815;51.990;5.688;2023-05-20T11:06:27;19.7;42.3
78516;SHT31;67815;51.990;5.688;2023-05-20T11:09:03;19.7;43.5
78516;SHT31;67815;51.990;5.688;2023-05-20T11:11:34;19.7;42.5
78516;SHT31;67815;51.990;5.688;2023-05-20T11:14:05;19.7;42.5
78516;SHT31;67815;51.990;5.688;2023-05-20T11:16:34;19.8;42.5
78516;SHT31;67815;51.990;5.688;2023-05-20T11:19:06;19.8;43.3
78516;SHT31;67815;51.990;5.688;2023-05-20T11:21:45;19.9;43.5
78516;SHT31;67815;51.990;5.688;2023-05-20T11:24:23;19.9;43.0
78516;SHT31;67815;51.990;5.688;2023-05-20T11:26:56;20.0;43.4
78516;SHT31;67815;51.990;5.688;2023-05-20T11:29:27;20.1;43.8
78516;SHT31;67815;51.990;5.688;2023-05-20T11:31:59;20.1;42.0
78516;SHT31;67815;51.990;5.688;2023-05-20T11:34:35;20.2;41.1
78516;SHT31;67815;51.990;5.688;2023-05-20T11:37:09;20.2;42.0
78516;SHT31;67815;51.990;5.688;2023-05-20T11:39:40;20.3;42.5
78516;SHT31;67815;51.990;5.688;2023-05-20T11:42:09;20.3;44.3
78516;SHT31;67815;51.990;5.688;2023-05-20T11:44:42;20.4;42.5
78516;SHT31;67815;51.990;5.688;2023-05-20T11:47:13;20.4;41.7
78516;SHT31;67815;51.990;5.688;2023-05-20T11:49:46;20.5;41.3
78516;SHT31;67815;51.990;5.688;2023-05-20T11:52:17;20.5;41.5
78516;SHT31;67815;51.990;5.688;2023-05-20T11:54:52;20.6;42.0
78516;SHT31;67815;51.990;5.688;2023-05-20T11:57:23;20.6;44.1
78516;SHT31;67815;51.990;5.688;2023-05-20T11:59:53;20.7;44.0
78516;SHT31;67815;51.990;5.688;2023-05-20T12:02:24;20.8;42.5
78516;SHT31;67815;51.990;5.688;2023-05-20T12:04:56;20.9;42.6
78516;SHT31;67815;51.990;5.688;2023-05-20T12:07:25;21.0;43.7
78516;SHT31;67815;51.990;5.688;2023-05-20T12:09:55;21.0;41.8
78516;SHT31;67815;51.990;5.688;2023-05-20T12:12:24;21.1;40.3
78516;SHT31;67815;51.990;5.688;2023-05-20T12:14:54;21.1;39.9
78516;SHT31;67815;51.990;5.688;2023-05-20T12:17:25;21.1;41.8
78516;SHT31;67815;51.990;5.688;2023-05-20T12:19:55;21.2;41.6
78516;SHT31;67815;51.990;5.688;2023-05-20T12:22:25;21.2;41.6
78516;SHT31;67815;51.990;5.688;2023-05-20T12:24:56;21.2;40.8
78516;SHT31;67815;51.990;5.688;2023-05-20T12:27:26;21.2;41.1
78516;SHT31;67815;51.990;5.688;2023-05-20T12:29:57;21.2;41.1
78516;SHT31;67815;51.990;5.688;2023-05-20T12:32:27;21.2;39.9
78516;SHT31;67815;51.990;5.688;2023-05-20T12:34:57;21.3;39.6
78516;SHT31;67815;51.990;5.688;2023-05-20T12:37:26;21.3;39.2
78516;SHT31;67815;51.990;5.688;2023-05-20T12:39:56;21.3;41.2
78516;SHT31;67815;51.990;5.688;2023-05-20T12:42:26;21.3;42.8
78516;SHT31;67815;51.990;5.688;2023-05-20T12:44:55;21.3;42.9
78516;SHT31;67815;51.990;5.688;2023-05-20T12:47:25;21.3;41.7
78516;SHT31;67815;51.990;5.688;2023-05-20T12:49:54;21.3;41.7
78516;SHT31;67815;51.990;5.688;2023-05-20T12:52:25;21.3;42.4
78516;SHT31;67815;51.990;5.688;2023-05-20T12:54:55;21.4;41.7
78516;SHT31;67815;51.990;5.688;2023-05-20T12:57:25;21.4;39.6
78516;SHT31;67815;51.990;5.688;2023-05-20T12:59:55;21.5;40.9
78516;SHT31;67815;51.990;5.688;2023-05-20T13:02:26;21.5;40.9
78516;SHT31;67815;51.990;5.688;2023-05-20T13:04:56;21.5;41.4
78516;SHT31;67815;51.990;5.688;2023-05-20T13:07:26;21.5;41.2
78516;SHT31;67815;51.990;5.688;2023-05-20T13:09:55;21.5;41.3
78516;SHT31;67815;51.990;5.688;2023-05-20T13:12:25;21.6;41.1
78516;SHT31;67815;51.990;5.688;2023-05-20T13:14:54;21.6;41.8
78516;SHT31;67815;51.990;5.688;2023-05-20T13:17:24;21.6;40.2
78516;SHT31;67815;51.990;5.688;2023-05-20T13:19:54;21.6;39.4
78516;SHT31;67815;51.990;5.688;2023-05-20T13:22:25;21.6;40.1
78516;SHT31;67815;51.990;5.688;2023-05-20T13:24:55;21.6;39.9
78516;SHT31;67815;51.990;5.688;2023-05-20T13:27:25;21.6;41.0
78516;SHT31;67815;51.990;5.688;2023-05-20T13:29:57;21.6;41.0
78516;SHT31;67815;51.990;5.688;2023-05-20T13:32:28;21.6;40.7
78516;SHT31;67815;51.990;5.688;2023-05-20T13:34:58;21.6;41.8
78516;SHT31;67815;51.990;5.688;2023-05-20T13:37:28;21.6;42.7
78516;SHT31;67815;51.990;5.688;2023-05-20T13:39:57;21.6;42.4
78516;SHT31;67815;51.990;5.688;2023-05-20T13:42:27;21.6;41.6
78516;SHT31;67815;51.990;5.688;2023-05-20T13:44:56;21.6;41.1
78516;SHT31;67815;51.990;5.688;2023-05-20T13:47:26;21.6;40.6
78516;SHT31;67815;51.990;5.688;2023-05-20T13:49:55;21.6;41.9
78516;SHT31;67815;51.990;5.688;2023-05-20T13:52:27;21.7;41.5
78516;SHT31;67815;51.990;5.688;2023-05-20T13:54:57;21.7;40.9
78516;SHT31;67815;51.990;5.688;2023-05-20T13:57:27;21.7;42.1
78516;SHT31;67815;51.990;5.688;2023-05-20T13:59:56;21.8;42.2
78516;SHT31;67815;51.990;5.688;2023-05-20T14:02:28;21.8;42.0
78516;SHT31;67815;51.990;5.688;2023-05-20T14:04:57;21.8;41.7
78516;SHT31;67815;51.990;5.688;2023-05-20T14:07:27;21.9;41.1
78516;SHT31;67815;51.990;5.688;2023-05-20T14:09:57;21.9;42.1
78516;SHT31;67815;51.990;5.688;2023-05-20T14:12:26;21.9;41.1
78516;SHT31;67815;51.990;5.688;2023-05-20T14:14:56;22.0;41.1
78516;SHT31;67815;51.990;5.688;2023-05-20T14:17:26;22.0;39.9
78516;SHT31;67815;51.990;5.688;2023-05-20T14:19:55;22.0;41.6
78516;SHT31;67815;51.990;5.688;2023-05-20T14:22:27;22.0;41.0
78516;SHT31;67815;51.990;5.688;2023-05-20T14:24:57;22.0;42.7
78516;SHT31;67815;51.990;5.688;2023-05-20T14:27:28;22.0;41.5
78516;SHT31;67815;51.990;5.688;2023-05-20T14:29:57;22.1;41.6
78516;SHT31;67815;51.990;5.688;2023-05-20T14:32:27;22.1;41.6
78516;SHT31;67815;51.990;5.688;2023-05-20T14:34:57;22.1;41.0
78516;SHT31;67815;51.990;5.688;2023-05-20T14:37:27;22.1;40.2
78516;SHT31;67815;51.990;5.688;2023-05-20T14:39:56;22.1;40.9
78516;SHT31;67815;51.990;5.688;2023-05-20T14:42:26;22.1;39.9
78516;SHT31;67815;51.990;5.688;2023-05-20T14:44:56;22.1;39.9
78516;SHT31;67815;51.990;5.688;2023-05-20T14:47:25;22.1;39.5
78516;SHT31;67815;51.990;5.688;2023-05-20T14:49:55;22.1;39.9
78516;SHT31;67815;51.990;5.688;2023-05-20T14:52:25;22.1;40.0
78516;SHT31;67815;51.990;5.688;2023-05-20T14:54:55;22.1;40.8
78516;SHT31;67815;51.990;5.688;2023-05-20T14:57:25;22.1;39.5
78516;SHT31;67815;51.990;5.688;2023-05-20T14:59:55;22.1;40.2
78516;SHT31;67815;51.990;5.688;2023-05-20T15:02:24;22.1;40.4
78516;SHT31;67815;51.990;5.688;2023-05-20T15:04:54;22.1;41.2
78516;SHT31;67815;51.990;5.688;2023-05-20T15:07:23;22.1;40.0
78516;SHT31;67815;51.990;5.688;2023-05-20T15:09:56;22.1;40.0
78516;SHT31;67815;51.990;5.688;2023-05-20T15:12:25;22.1;39.8
78516;SHT31;67815;51.990;5.688;2023-05-20T15:14:55;22.1;40.6
78516;SHT31;67815;51.990;5.688;2023-05-20T15:17:25;22.1;40.6
78516;SHT31;67815;51.990;5.688;2023-05-20T15:19:54;22.1;39.8
78516;SHT31;67815;51.990;5.688;2023-05-20T15:22:24;22.1;40.4
78516;SHT31;67815;51.990;5.688;2023-05-20T15:24:54;22.1;40.9
78516;SHT31;67815;51.990;5.688;2023-05-20T15:27:23;22.1;39.6
78516;SHT31;67815;51.990;5.688;2023-05-20T15:29:53;22.0;39.4
78516;SHT31;67815;51.990;5.688;2023-05-20T15:32:22;22.0;39.9
78516;SHT31;67815;51.990;5.688;2023-05-20T15:34:52;22.0;40.2
78516;SHT31;67815;51.990;5.688;2023-05-20T15:37:22;22.0;39.2
78516;SHT31;67815;51.990;5.688;2023-05-20T15:39:51;22.0;39.8
78516;SHT31;67815;51.990;5.688;2023-05-20T15:42:21;22.0;39.5
78516;SHT31;67815;51.990;5.688;2023-05-20T15:44:51;22.0;39.1
78516;SHT31;67815;51.990;5.688;2023-05-20T15:47:21;22.0;39.5
78516;SHT31;67815;51.990;5.688;2023-05-20T15:49:50;22.0;39.7
78516;SHT31;67815;51.990;5.688;2023-05-20T15:52:20;22.0;39.9
78516;SHT31;67815;51.990;5.688;2023-05-20T15:54:50;22.0;39.1
78516;SHT31;67815;51.990;5.688;2023-05-20T15:57:20;21.9;39.7
78516;SHT31;67815;51.990;5.688;2023-05-20T15:59:52;21.9;39.3
78516;SHT31;67815;51.990;5.688;2023-05-20T16:02:22;21.9;40.1
78516;SHT31;67815;51.990;5.688;2023-05-20T16:04:52;21.9;39.4
78516;SHT31;67815;51.990;5.688;2023-05-20T16:07:21;21.9;39.6
78516;SHT31;67815;51.990;5.688;2023-05-20T16:09:51;21.9;39.3
78516;SHT31;67815;51.990;5.688;2023-05-20T16:12:22;21.9;39.5
78516;SHT31;67815;51.990;5.688;2023-05-20T16:14:51;21.8;39.4
78516;SHT31;67815;51.990;5.688;2023-05-20T16:17:21;21.8;39.5
78516;SHT31;67815;51.990;5.688;2023-05-20T16:19:50;21.8;39.6
78516;SHT31;67815;51.990;5.688;2023-05-20T16:22:20;21.8;40.6
78516;SHT31;67815;51.990;5.688;2023-05-20T16:24:50;21.8;39.5